Airfield :
LOGIN :

Register | Disclaimer

   EN    FR    IT 

 










Legend :    VFR   Marginal VFR   IFR   Intensive IFR   Very Intensive IFR
Visi :
Ceiling :
>= 8 km
>= 3000ft
5 to 8 km
1000 to 3000 ft
1500m to 5 km
500 to 1000 ft
800 to 1500m
200 to 500 ft
< 800m
< 200 ft
Symbols :   Thunderstorms  Fog  Heavy snow  Heavy precipitations  Wind > 20 kt
SIGMETs :     Misc.  Thunderstorms  Icing  Turbulence  Mountain Waves  Volcanic Ashes







- Airport Elevation : 1367 ft
- IATA code : FDH


EDNY - Friedrichshafen

CURRENT METAR :
  • 200920Z 00000KT 9999 FEW022 BKN098 OVC110 01/01 Q1024

EXPIRED METARs :
  • 200850Z 05002KT 9999 FEW009 OVC098 01/00 Q1024
  • 200820Z 05002KT CAVOK 00/M00 Q1024
  • 200750Z VRB01KT 9999 FEW033 BKN098 OVC110 M00/M00 Q1024
  • 200720Z 00000KT 9999 FEW032 BKN100 OVC120 M01/M01 Q1024
  • 200650Z 00000KT 9999 FEW033 BKN120 OVC150 M01/M01 Q1024

TAF TAF EDNY
Valid from the 20 at 06:00 until the 21 at 06:00 UTC


200500Z 2006/2106 VRB03KT 9999 BKN045
TEMPO 2006/2008 3500 BR
TEMPO 2021/2106 RA BKN014
No reported NOTAMs for that airfield.



MET'MAP, your aeronautical weather chart ! - Copyright ORBIFLY December 2007 - Disclaimer

ORBIFLY MET'MAP TEAM :

Programming & Development : Alexandra Zaïnal
Concept & Development : Baudouin d'Aumeries
Co-Development & Prog : Marc-Olivier Méhu
Technical & hardware support : Manuel Goepfert

Contact : metmap@orbifly.com




SOURCES & CREDITS :

   NOAA